Terminal Aerodrome Forecast
Issued by NWS Dallas/Fort Worth, TX

Home | Current Version | Previous Version | Text Only | Print | Product List | Glossary On
Versions: 1 2 3 4 5 6 7 8 9 10 11 12 13 14 15 16 17 18 19 20 21 22 23 24 25 26 27 28 29 30 31 32
342
FTUS44 KFWD 241753 RRA
TAFACT
TAF
KACT 241753Z 2418/2518 20012KT 5SM BR VCTS BKN022CB
     FM242000 22012KT P6SM BKN022
     FM242300 30011KT P6SM SCT022
     FM250000 32011KT P6SM SCT250
     FM250500 35006KT 3SM BR FEW150 SCT250
     FM251500 07006KT 5SM BR BKN150=

USA.gov is the U.S. government's official web portal to all federal, state and local government web resources and services.